Time;durP1;ratioP1;P1;durP2;ratioP2;P2;SDS_P1;SDS_P2;PMS_P1;PMS_P2;Temp;Humidity;BMP_temperature;BMP_pressure;BME280_temperature;BME280_humidity;BME280_pressure;Samples;Min_cycle;Max_cycle;Signal;HPM_P1;HPM_P2
2024/03/22 00:00:50;;;;;;;44.23;20.72;;;;;;;3.61;87.68;100733.00;1744424;82;21043;-69
2024/03/22 00:03:19;;;;;;;45.45;21.50;;;;;;;3.58;87.82;100736.00;1721509;82;21031;-69
2024/03/22 00:05:48;;;;;;;44.00;20.77;;;;;;;3.56;87.93;100736.65;1744236;82;21019;-68
2024/03/22 00:08:16;;;;;;;47.85;20.97;;;;;;;3.55;88.03;100742.22;1744362;82;21071;-68
2024/03/22 00:10:45;;;;;;;54.93;21.87;;;;;;;3.51;88.11;100737.59;1744407;82;20980;-70
2024/03/22 00:13:13;;;;;;;49.48;21.55;;;;;;;3.47;88.23;100735.66;1744296;82;21023;-68
2024/03/22 00:15:44;;;;;;;47.43;21.17;;;;;;;3.45;88.38;100734.95;1744389;82;21049;-68
2024/03/22 00:18:12;;;;;;;47.80;22.35;;;;;;;3.45;88.54;100732.74;1744310;82;21066;-68
2024/03/22 00:20:41;;;;;;;53.65;21.27;;;;;;;3.45;88.71;100736.80;1744330;82;21024;-68
2024/03/22 00:23:10;;;;;;;45.90;20.20;;;;;;;3.44;88.84;100732.39;1744222;82;21472;-68
2024/03/22 00:25:39;;;;;;;47.78;21.57;;;;;;;3.43;88.96;100730.17;1744442;82;21043;-68
2024/03/22 00:28:09;;;;;;;52.13;22.05;;;;;;;3.44;89.07;100730.53;1745763;82;21023;-68
2024/03/22 00:30:37;;;;;;;47.67;22.55;;;;;;;3.41;89.19;100732.17;1744248;82;21031;-69
2024/03/22 00:33:08;;;;;;;43.15;22.05;;;;;;;3.41;89.41;100719.13;1744260;82;21036;-68
2024/03/22 00:35:36;;;;;;;45.23;22.75;;;;;;;3.40;89.45;100716.92;1744352;82;21043;-68
2024/03/22 00:38:05;;;;;;;50.78;23.27;;;;;;;3.41;89.47;100713.72;1744317;82;21044;-67
2024/03/22 00:40:33;;;;;;;50.12;23.30;;;;;;;3.39;89.46;100719.27;1744251;82;21047;-67
2024/03/22 00:43:02;;;;;;;49.85;23.85;;;;;;;3.37;89.47;100717.21;1744114;82;21042;-68
2024/03/22 00:45:30;;;;;;;53.38;24.57;;;;;;;3.34;89.51;100718.00;1744170;82;21047;-68
2024/03/22 00:48:00;;;;;;;53.80;24.77;;;;;;;3.30;89.54;100715.22;1744105;82;21019;-68
2024/03/22 00:50:28;;;;;;;56.80;27.67;;;;;;;3.28;89.71;100720.78;1744128;82;21019;-68
2024/03/22 00:52:57;;;;;;;56.33;29.25;;;;;;;3.27;89.77;100715.50;1744352;82;21059;-68
2024/03/22 00:55:25;;;;;;;58.45;29.70;;;;;;;3.23;89.84;100712.20;1744160;82;21031;-69
2024/03/22 00:57:53;;;;;;;62.70;31.35;;;;;;;3.21;90.03;100707.42;1744080;82;21066;-68
2024/03/22 01:00:23;;;;;;;56.30;33.50;;;;;;;3.21;90.21;100711.48;1744363;82;21019;-68
2024/03/22 01:02:52;;;;;;;60.52;32.83;;;;;;;3.24;90.29;100708.99;1744247;82;20983;-68
2024/03/22 01:05:20;;;;;;;60.92;32.88;;;;;;;3.24;90.26;100707.14;1744143;82;20992;-68
2024/03/22 01:07:49;;;;;;;65.42;33.78;;;;;;;3.23;90.34;100701.37;1744233;82;21040;-69
2024/03/22 01:10:19;;;;;;;59.40;33.58;;;;;;;3.21;90.48;100702.01;1744017;82;21521;-69
2024/03/22 01:12:48;;;;;;;59.75;33.65;;;;;;;3.21;90.58;100703.86;1744172;82;21071;-67
2024/03/22 01:15:16;;;;;;;56.28;32.25;;;;;;;3.21;90.62;100705.22;1743941;82;21035;-69
2024/03/22 01:17:44;;;;;;;57.40;32.42;;;;;;;3.21;90.63;100707.92;1744203;82;21448;-68
2024/03/22 01:20:13;;;;;;;57.15;31.52;;;;;;;3.18;90.57;100707.70;1744299;82;20995;-68
2024/03/22 01:22:42;;;;;;;57.88;31.87;;;;;;;3.14;90.61;100711.70;1744039;82;21028;-68
2024/03/22 01:25:10;;;;;;;56.35;31.35;;;;;;;3.08;90.69;100710.41;1743903;82;21106;-69
2024/03/22 01:27:39;;;;;;;59.60;30.77;;;;;;;3.05;90.87;100713.91;1744217;82;21035;-68
2024/03/22 01:30:09;;;;;;;54.70;30.88;;;;;;;3.03;91.05;100712.70;1743995;82;21031;-68
2024/03/22 01:32:37;;;;;;;59.03;32.05;;;;;;;3.04;91.18;100702.72;1741281;82;21059;-69
2024/03/22 01:35:07;;;;;;;64.32;32.75;;;;;;;2.99;91.09;100703.14;1744124;82;21039;-69
2024/03/22 01:37:35;;;;;;;61.98;33.60;;;;;;;2.95;91.10;100708.98;1744021;82;21051;-69
2024/03/22 01:40:06;;;;;;;61.40;32.65;;;;;;;2.91;91.16;100706.20;1744394;82;21051;-69
2024/03/22 01:42:34;;;;;;;55.63;31.90;;;;;;;2.89;91.23;100701.43;1743972;82;21075;-68
2024/03/22 01:45:04;;;;;;;61.65;33.15;;;;;;;2.87;91.29;100697.52;1744157;82;21022;-69
2024/03/22 01:47:34;;;;;;;62.05;33.55;;;;;;;2.87;91.44;100700.22;1744053;82;21064;-69
2024/03/22 01:50:03;;;;;;;64.47;34.63;;;;;;;2.88;91.65;100698.37;1743075;82;21040;-69
2024/03/22 01:52:32;;;;;;;69.72;34.58;;;;;;;2.88;91.79;100695.66;1744189;82;21000;-69
2024/03/22 01:55:00;;;;;;;69.75;35.45;;;;;;;2.88;91.88;100697.87;1743937;82;21366;-67
2024/03/22 01:57:29;;;;;;;75.97;36.58;;;;;;;2.86;91.93;100697.16;1744169;82;21023;-67
2024/03/22 01:59:57;;;;;;;82.25;37.48;;;;;;;2.88;92.05;100694.31;1744174;82;21075;-69
2024/03/22 02:02:25;;;;;;;72.55;35.63;;;;;;;2.90;92.04;100697.73;1743933;82;21055;-68
2024/03/22 02:04:54;;;;;;;73.67;37.03;;;;;;;2.88;92.14;100693.81;1744052;82;21047;-68
2024/03/22 02:07:22;;;;;;;79.03;35.08;;;;;;;2.86;92.15;100696.66;1744213;82;21038;-69
2024/03/22 02:09:51;;;;;;;70.97;34.35;;;;;;;2.84;92.19;100695.94;1744021;82;21015;-68
2024/03/22 02:12:19;;;;;;;76.97;35.50;;;;;;;2.81;92.20;100700.28;1744181;82;21047;-68
2024/03/22 02:14:48;;;;;;;76.70;35.38;;;;;;;2.79;92.24;100698.22;1743980;82;21046;-68
2024/03/22 02:17:16;;;;;;;69.42;34.80;;;;;;;2.77;92.29;100696.14;1743870;82;21682;-68
2024/03/22 02:19:45;;;;;;;83.37;36.98;;;;;;;2.77;92.40;100696.14;1744281;82;21043;-68
2024/03/22 02:22:13;;;;;;;89.70;41.75;;;;;;;2.76;92.49;100695.80;1743960;82;21008;-68
2024/03/22 02:24:42;;;;;;;99.83;44.38;;;;;;;2.77;92.45;100690.73;1744066;82;21023;-68
2024/03/22 02:27:10;;;;;;;101.70;44.23;;;;;;;2.77;92.53;100690.73;1743976;82;21056;-67
2024/03/22 02:29:39;;;;;;;100.80;46.33;;;;;;;2.77;92.55;100691.23;1743950;82;20980;-69
2024/03/22 02:32:07;;;;;;;95.45;43.63;;;;;;;2.75;92.63;100694.08;1744117;82;21051;-68
2024/03/22 02:34:36;;;;;;;89.42;40.78;;;;;;;2.74;92.79;100692.87;1744122;82;21051;-69
2024/03/22 02:37:07;;;;;;;87.27;41.02;;;;;;;2.74;92.82;100695.08;1740958;82;21463;-69
2024/03/22 02:39:35;;;;;;;89.83;38.98;;;;;;;2.70;92.82;100688.23;1744198;82;21027;-69
2024/03/22 02:42:05;;;;;;;84.00;39.58;;;;;;;2.67;92.85;100691.72;1744146;82;21086;-70
2024/03/22 02:44:33;;;;;;;83.27;37.88;;;;;;;2.66;92.94;100686.80;1744139;82;21039;-69
2024/03/22 02:47:02;;;;;;;78.60;34.50;;;;;;;2.66;92.94;100689.52;1744087;82;21007;-68
2024/03/22 02:49:30;;;;;;;78.65;35.20;;;;;;;2.64;92.96;100685.23;1743980;82;21047;-69
2024/03/22 02:51:59;;;;;;;76.57;34.05;;;;;;;2.61;92.96;100686.38;1743943;82;21071;-69
2024/03/22 02:54:28;;;;;;;77.95;33.63;;;;;;;2.61;93.10;100682.81;1744153;82;21051;-69
2024/03/22 02:56:57;;;;;;;75.67;33.02;;;;;;;2.57;93.15;100688.96;1744053;82;21057;-70
2024/03/22 02:59:28;;;;;;;68.90;32.88;;;;;;;2.55;93.28;100690.45;1744017;82;21003;-69
2024/03/22 03:01:57;;;;;;;74.45;34.27;;;;;;;2.52;93.34;100685.33;1743957;82;21007;-69
2024/03/22 03:04:25;;;;;;;70.45;32.67;;;;;;;2.51;93.44;100683.61;1744146;82;21019;-68
2024/03/22 03:06:55;;;;;;;73.22;33.98;;;;;;;2.51;93.48;100686.31;1744124;82;21083;-69
2024/03/22 03:09:25;;;;;;;75.62;34.92;;;;;;;2.52;93.50;100686.67;1743949;82;21035;-69
2024/03/22 03:11:53;;;;;;;72.53;34.92;;;;;;;2.53;93.58;100679.41;1744077;82;21432;-68
2024/03/22 03:14:22;;;;;;;74.20;34.78;;;;;;;2.54;93.60;100682.48;1743978;82;21050;-69
2024/03/22 03:16:50;;;;;;;76.15;34.98;;;;;;;2.53;93.55;100682.98;1744097;82;21027;-69
2024/03/22 03:19:19;;;;;;;73.57;35.23;;;;;;;2.49;93.53;100686.10;1743919;82;21451;-69
2024/03/22 03:21:47;;;;;;;78.35;34.92;;;;;;;2.46;93.59;100689.08;1743910;82;21047;-69
2024/03/22 03:24:16;;;;;;;76.40;34.35;;;;;;;2.44;93.67;100682.46;1744125;82;21067;-69
2024/03/22 03:26:44;;;;;;;74.58;34.27;;;;;;;2.44;93.68;100689.22;1721309;82;21079;-69
2024/03/22 03:29:13;;;;;;;72.10;35.17;;;;;;;2.42;93.65;100685.80;1743934;82;21019;-68
2024/03/22 03:31:42;;;;;;;72.58;34.25;;;;;;;2.41;93.66;100687.29;1744005;82;21466;-69
2024/03/22 03:34:10;;;;;;;71.95;33.33;;;;;;;2.40;93.68;100681.52;1744134;82;21062;-69
2024/03/22 03:36:39;;;;;;;68.60;32.65;;;;;;;2.38;93.72;100681.66;1721448;82;20995;-69
2024/03/22 03:39:08;;;;;;;61.53;31.05;;;;;;;2.38;93.70;100689.77;1743866;82;21019;-69
2024/03/22 03:41:36;;;;;;;64.80;31.07;;;;;;;2.36;93.72;100686.36;1744062;82;21063;-68
2024/03/22 03:44:05;;;;;;;69.22;30.82;;;;;;;2.35;93.78;100686.49;1743502;82;21063;-69
2024/03/22 03:46:34;;;;;;;60.95;29.15;;;;;;;2.33;93.82;100683.06;1743864;82;21028;-68
2024/03/22 03:49:02;;;;;;;64.82;29.67;;;;;;;2.32;93.92;100685.41;1744131;82;21031;-68
2024/03/22 03:51:31;;;;;;;65.37;29.20;;;;;;;2.32;94.00;100686.77;1744127;82;21102;-69
2024/03/22 03:53:59;;;;;;;62.03;29.15;;;;;;;2.31;94.05;100683.20;1744072;82;21047;-69
2024/03/22 03:56:28;;;;;;;68.55;27.27;;;;;;;2.31;94.14;100686.41;1743912;82;21016;-68
2024/03/22 03:58:57;;;;;;;68.05;29.60;;;;;;;2.30;94.15;100680.64;1744047;82;21007;-68
2024/03/22 04:01:26;;;;;;;71.55;30.27;;;;;;;2.30;94.19;100681.99;1743161;82;21047;-69
2024/03/22 04:03:54;;;;;;;68.70;30.72;;;;;;;2.30;94.27;100681.99;1743920;82;21079;-68
2024/03/22 04:06:23;;;;;;;64.87;30.95;;;;;;;2.31;94.29;100684.56;1744062;82;21455;-69
2024/03/22 04:08:51;;;;;;;70.15;29.77;;;;;;;2.31;94.31;100683.20;1743965;82;21020;-68
2024/03/22 04:11:20;;;;;;;62.13;28.30;;;;;;;2.33;94.25;100688.48;1742264;82;21072;-69
2024/03/22 04:13:49;;;;;;;60.78;27.52;;;;;;;2.30;94.24;100687.41;1744072;82;21024;-69
2024/03/22 04:16:17;;;;;;;62.27;27.95;;;;;;;2.27;94.17;100694.44;1744103;82;21047;-69
2024/03/22 04:18:46;;;;;;;72.80;28.17;;;;;;;2.23;94.28;100688.45;1721589;82;21483;-69
2024/03/22 04:21:15;;;;;;;56.30;26.93;;;;;;;2.25;94.41;100690.52;1743893;82;21493;-69
2024/03/22 04:23:44;;;;;;;70.40;27.05;;;;;;;2.27;94.56;100689.03;1743933;82;21063;-69
2024/03/22 04:26:12;;;;;;;65.10;27.93;;;;;;;2.30;94.66;100694.16;1743851;82;21522;-68
2024/03/22 04:28:40;;;;;;;62.58;28.52;;;;;;;2.31;94.69;100689.11;1721157;82;21521;-68
2024/03/22 04:31:09;;;;;;;63.92;27.82;;;;;;;2.30;94.69;100691.45;1743848;82;21008;-68
2024/03/22 04:33:38;;;;;;;63.33;28.52;;;;;;;2.30;94.75;100684.70;1743866;82;21529;-68
2024/03/22 04:36:09;;;;;;;67.67;29.85;;;;;;;2.29;94.77;100687.90;1743870;82;21039;-69
2024/03/22 04:38:37;;;;;;;62.38;27.80;;;;;;;2.31;94.86;100689.11;1743875;82;21444;-69
2024/03/22 04:41:06;;;;;;;59.10;28.32;;;;;;;2.31;94.92;100688.62;1743927;82;21072;-68
2024/03/22 04:43:35;;;;;;;60.03;26.95;;;;;;;2.36;95.06;100690.41;1744177;82;21064;-69
2024/03/22 04:46:04;;;;;;;64.35;28.80;;;;;;;2.36;95.01;100693.61;1744182;82;21199;-68
2024/03/22 04:48:34;;;;;;;64.47;28.25;;;;;;;2.35;95.01;100689.20;1743975;82;21454;-69
2024/03/22 04:51:03;;;;;;;60.58;27.62;;;;;;;2.37;95.18;100692.61;1744109;82;21031;-69
2024/03/22 04:53:31;;;;;;;75.50;28.05;;;;;;;2.38;95.28;100684.37;1743965;82;21086;-68
2024/03/22 04:56:00;;;;;;;72.92;28.70;;;;;;;2.42;95.34;100692.56;1744318;82;21428;-69
2024/03/22 04:58:28;;;;;;;75.12;29.02;;;;;;;2.45;95.46;100691.42;1744339;82;21019;-68
2024/03/22 05:00:57;;;;;;;65.35;27.93;;;;;;;2.47;95.49;100690.80;1743977;82;21055;-70
2024/03/22 05:03:26;;;;;;;68.62;29.40;;;;;;;2.52;95.57;100687.17;1744185;82;21015;-68
2024/03/22 05:05:55;;;;;;;78.15;31.95;;;;;;;2.55;95.63;100685.05;1745569;82;21059;-69
2024/03/22 05:08:24;;;;;;;76.45;31.68;;;;;;;2.61;95.68;100688.22;1744044;82;21429;-69
2024/03/22 05:10:53;;;;;;;70.47;31.68;;;;;;;2.64;95.80;100689.30;1743973;82;21043;-67
2024/03/22 05:13:22;;;;;;;80.25;33.02;;;;;;;2.70;95.86;100693.65;1744009;82;21463;-69
2024/03/22 05:15:50;;;;;;;91.50;35.48;;;;;;;2.73;95.91;100692.02;1744138;82;21039;-69
2024/03/22 05:18:19;;;;;;;86.08;38.13;;;;;;;2.77;95.93;100685.82;1744155;82;21043;-69
2024/03/22 05:20:47;;;;;;;87.15;37.35;;;;;;;2.83;96.02;100690.17;1721376;82;21019;-67
2024/03/22 05:23:16;;;;;;;91.87;37.98;;;;;;;2.90;96.02;100694.52;1743942;82;21004;-69
2024/03/22 05:25:44;;;;;;;86.15;40.05;;;;;;;2.93;96.08;100693.38;1744216;82;21046;-68
2024/03/22 05:28:15;;;;;;;94.60;40.98;;;;;;;2.99;96.16;100693.67;1744097;82;21063;-68
2024/03/22 05:30:45;;;;;;;87.27;41.35;;;;;;;3.07;96.25;100693.81;1744091;82;21485;-69
2024/03/22 05:33:14;;;;;;;94.67;41.42;;;;;;;3.16;96.20;100692.11;1743922;82;21042;-69
2024/03/22 05:35:42;;;;;;;102.72;42.95;;;;;;;3.22;96.18;100687.47;1743968;82;21063;-68
2024/03/22 05:38:11;;;;;;;101.00;46.28;;;;;;;3.30;96.18;100682.22;1744278;82;21011;-68
2024/03/22 05:40:40;;;;;;;118.13;53.33;;;;;;;3.37;96.17;100682.50;1744038;82;21063;-68
2024/03/22 05:43:08;;;;;;;122.30;54.33;;;;;;;3.44;96.15;100676.86;1744114;82;21022;-69
2024/03/22 05:45:37;;;;;;;111.65;50.48;;;;;;;3.52;96.07;100682.91;1744347;82;21035;-69
2024/03/22 05:48:07;;;;;;;120.13;50.78;;;;;;;3.59;96.04;100679.97;1744147;82;21027;-69
2024/03/22 05:50:35;;;;;;;113.22;49.95;;;;;;;3.68;95.99;100681.80;1744138;82;21071;-68
2024/03/22 05:53:04;;;;;;;107.00;49.55;;;;;;;3.74;95.88;100674.44;1744125;82;21475;-68
2024/03/22 05:55:33;;;;;;;111.17;50.00;;;;;;;3.81;95.81;100684.54;1744224;82;21007;-68
2024/03/22 05:58:01;;;;;;;109.95;49.03;;;;;;;3.89;95.79;100682.45;1743890;82;21008;-68
2024/03/22 06:00:30;;;;;;;109.78;47.17;;;;;;;3.98;95.74;100682.09;1743951;82;21102;-68
2024/03/22 06:02:59;;;;;;;130.35;49.80;;;;;;;4.07;95.64;100687.48;1743906;82;21047;-69
2024/03/22 06:05:27;;;;;;;115.92;48.45;;;;;;;4.17;95.56;100687.94;1744142;82;21086;-68
2024/03/22 06:07:57;;;;;;;105.03;47.78;;;;;;;4.25;95.42;100687.54;1743930;82;21436;-69
2024/03/22 06:10:25;;;;;;;96.45;46.23;;;;;;;4.34;95.24;100687.99;1743893;82;21495;-70
2024/03/22 06:12:54;;;;;;;110.17;48.30;;;;;;;4.43;95.08;100683.52;1744039;82;21071;-69
2024/03/22 06:15:22;;;;;;;104.05;48.30;;;;;;;4.54;94.96;100689.24;1744037;82;21155;-69
2024/03/22 06:17:51;;;;;;;100.15;44.50;;;;;;;4.62;94.86;100687.51;1744033;82;21019;-69
2024/03/22 06:20:19;;;;;;;89.20;43.75;;;;;;;4.74;94.75;100686.28;1721285;82;21031;-68
2024/03/22 06:22:47;;;;;;;91.05;43.35;;;;;;;4.84;94.54;100685.36;1743686;82;21462;-69
2024/03/22 06:25:16;;;;;;;96.15;47.00;;;;;;;4.96;94.32;100689.56;1744041;82;21055;-69
2024/03/22 06:27:44;;;;;;;90.38;44.55;;;;;;;5.05;94.09;100681.84;1744186;82;21474;-69
2024/03/22 06:30:13;;;;;;;91.32;45.88;;;;;;;5.15;93.80;100683.97;1744113;82;21066;-69
2024/03/22 06:32:42;;;;;;;86.40;43.80;;;;;;;5.26;93.35;100676.97;1743915;82;21423;-69
2024/03/22 06:35:11;;;;;;;94.55;43.73;;;;;;;5.36;92.90;100683.67;1743893;82;21027;-69
2024/03/22 06:37:40;;;;;;;87.55;43.75;;;;;;;5.46;92.37;100687.16;1743899;82;21118;-69
2024/03/22 06:40:11;;;;;;;73.78;37.75;;;;;;;5.57;91.95;100688.77;1744104;82;21019;-68
2024/03/22 06:42:40;;;;;;;72.67;35.58;;;;;;;5.66;91.42;100686.45;1743896;82;21051;-68
2024/03/22 06:45:10;;;;;;;63.15;31.77;;;;;;;5.77;90.88;100683.47;1743883;82;21452;-68
2024/03/22 06:47:38;;;;;;;61.55;32.42;;;;;;;5.88;90.38;100683.74;1743916;82;21043;-69
2024/03/22 06:50:08;;;;;;;67.37;31.77;;;;;;;5.99;90.43;100676.70;1743892;82;21024;-69
2024/03/22 06:52:36;;;;;;;68.07;33.88;;;;;;;6.10;89.99;100683.22;1744113;82;21059;-68
2024/03/22 06:55:07;;;;;;;64.30;31.65;;;;;;;6.19;89.15;100676.80;1744034;82;21041;-69
2024/03/22 06:57:38;;;;;;;70.57;32.88;;;;;;;6.29;88.34;100679.40;1743892;82;21122;-68
2024/03/22 07:00:10;;;;;;;62.08;32.38;;;;;;;6.39;88.06;100679.27;1743945;82;21087;-69
2024/03/22 07:02:38;;;;;;;64.12;32.48;;;;;;;6.49;87.81;100683.56;1743798;82;21027;-67
2024/03/22 07:05:08;;;;;;;67.50;33.88;;;;;;;6.59;87.33;100683.46;1744038;82;21019;-69
2024/03/22 07:07:36;;;;;;;73.85;36.90;;;;;;;6.68;86.69;100681.11;1743919;82;21487;-69
2024/03/22 07:10:08;;;;;;;89.45;42.10;;;;;;;6.78;86.59;100676.88;1743973;82;21023;-69
2024/03/22 07:12:37;;;;;;;87.53;42.67;;;;;;;6.88;86.38;100677.58;1743864;82;21078;-68
2024/03/22 07:15:26;;;;;;;79.40;42.03;;;;;;;6.96;86.01;100681.17;1721138;82;21118;-68
2024/03/22 07:17:56;;;;;;;85.83;42.67;;;;;;;7.07;85.28;100677.78;1743023;82;21503;-68
2024/03/22 07:20:31;;;;;;;98.03;47.05;;;;;;;7.19;84.87;100685.49;1744144;82;21714;-69
2024/03/22 07:23:04;;;;;;;96.22;46.45;;;;;;;7.26;84.68;100674.25;1744051;82;21031;-68
2024/03/22 07:25:33;;;;;;;103.07;51.08;;;;;;;7.34;84.28;100671.19;1743880;82;20992;-69
2024/03/22 07:28:01;;;;;;;91.75;52.73;;;;;;;7.43;83.96;100676.98;1743893;82;21063;-69
2024/03/22 07:30:30;;;;;;;115.80;56.73;;;;;;;7.51;83.55;100677.83;1744128;82;21027;-67
2024/03/22 07:32:58;;;;;;;99.52;54.70;;;;;;;7.60;83.05;100675.95;1743974;82;21098;-69
2024/03/22 07:35:27;;;;;;;98.67;54.33;;;;;;;7.67;82.81;100679.69;1744017;82;21052;-68
2024/03/22 07:37:56;;;;;;;91.97;51.80;;;;;;;7.78;82.60;100679.84;1743978;82;21024;-69
2024/03/22 07:40:25;;;;;;;104.78;52.62;;;;;;;7.84;82.23;100677.31;1743875;82;21015;-69
2024/03/22 07:42:54;;;;;;;85.35;47.38;;;;;;;7.92;82.08;100677.30;1743881;82;21048;-68
2024/03/22 07:45:22;;;;;;;76.70;42.78;;;;;;;8.01;81.62;100671.81;1743928;82;21051;-68
2024/03/22 07:47:51;;;;;;;76.07;42.10;;;;;;;8.09;81.38;100666.34;1743883;82;21529;-69
2024/03/22 07:50:20;;;;;;;76.67;43.58;;;;;;;8.17;80.29;100663.07;1721103;82;21479;-68
2024/03/22 07:52:48;;;;;;;76.07;40.25;;;;;;;8.27;80.03;100664.23;1743953;82;21063;-68
2024/03/22 07:55:17;;;;;;;70.80;37.55;;;;;;;8.34;79.17;100654.33;1721522;82;21067;-68
2024/03/22 07:57:46;;;;;;;61.28;34.70;;;;;;;8.41;78.68;100653.96;1743875;82;21028;-68
2024/03/22 08:00:15;;;;;;;65.75;35.00;;;;;;;8.49;77.72;100655.84;1743832;82;21517;-68
2024/03/22 08:02:44;;;;;;;54.65;26.87;;;;;;;8.68;77.33;100665.47;1743857;82;21015;-68
2024/03/22 08:05:13;;;;;;;47.78;26.10;;;;;;;9.02;76.83;100655.00;1744118;82;20999;-69
2024/03/22 08:07:43;;;;;;;39.80;22.05;;;;;;;9.46;74.67;100656.56;1721208;82;21047;-70
2024/03/22 08:10:12;;;;;;;32.03;17.52;;;;;;;9.98;72.43;100663.11;1743992;82;21080;-68
2024/03/22 08:12:40;;;;;;;37.42;17.23;;;;;;;10.46;69.66;100654.91;1721218;82;21043;-69
2024/03/22 08:15:10;;;;;;;42.48;22.95;;;;;;;10.92;67.71;100656.83;1744218;82;21047;-69
2024/03/22 08:17:39;;;;;;;30.82;17.15;;;;;;;11.34;66.10;100649.70;1743881;82;21027;-69
2024/03/22 08:20:08;;;;;;;33.00;14.58;;;;;;;11.75;63.52;100649.88;1698136;82;21043;-70
2024/03/22 08:22:37;;;;;;;26.57;15.32;;;;;;;12.13;61.60;100646.78;1744254;82;21475;-70
2024/03/22 08:25:07;;;;;;;25.90;13.60;;;;;;;12.59;59.84;100638.28;1744019;82;21062;-69
2024/03/22 08:27:35;;;;;;;16.52;11.20;;;;;;;13.04;57.58;100639.20;1743967;82;21451;-68
2024/03/22 08:30:09;;;;;;;25.10;11.78;;;;;;;13.42;56.33;100636.75;1741143;82;21047;-70
2024/03/22 08:32:38;;;;;;;22.00;10.45;;;;;;;13.74;53.94;100628.20;1743976;82;21011;-70
2024/03/22 08:35:08;;;;;;;20.85;13.13;;;;;;;14.01;51.75;100634.00;1697965;82;21071;-69
2024/03/22 08:37:37;;;;;;;20.40;12.45;;;;;;;14.18;50.49;100621.45;1744146;82;21107;-71
2024/03/22 08:40:07;;;;;;;19.25;11.25;;;;;;;14.39;49.95;100623.12;1743957;82;21039;-70
2024/03/22 08:42:36;;;;;;;23.47;11.45;;;;;;;14.54;49.35;100615.98;1742790;81;21477;-70
2024/03/22 08:45:07;;;;;;;17.32;10.53;;;;;;;14.64;48.37;100624.64;1743969;82;20976;-70
2024/03/22 08:47:35;;;;;;;17.77;10.72;;;;;;;14.74;47.48;100615.36;1744112;82;21525;-70
2024/03/22 08:50:05;;;;;;;24.27;11.38;;;;;;;14.80;47.64;100609.50;1744112;82;21478;-69
2024/03/22 08:52:35;;;;;;;18.90;10.70;;;;;;;14.90;46.51;100612.63;1742616;82;21086;-69
2024/03/22 08:55:06;;;;;;;17.42;11.22;;;;;;;14.87;45.39;100605.64;1743860;82;21051;-70
2024/03/22 08:57:35;;;;;;;22.62;11.55;;;;;;;14.79;45.67;100610.03;1739737;80;21019;-71
2024/03/22 09:00:08;;;;;;;21.73;10.55;;;;;;;14.66;45.69;100610.63;1750222;81;21105;-71
2024/03/22 09:02:37;;;;;;;18.45;9.98;;;;;;;14.45;46.65;100605.73;1756317;82;21051;-70
2024/03/22 09:05:08;;;;;;;20.05;10.32;;;;;;;14.18;46.60;100607.67;1682198;85;21059;-71
2024/03/22 09:07:37;;;;;;;24.07;11.93;;;;;;;13.93;47.38;100602.02;1756653;82;21468;-71
2024/03/22 09:10:29;;;;;;;20.95;10.55;;;;;;;13.78;50.66;100611.04;1682312;85;21103;-71
2024/03/22 09:12:57;;;;;;;17.35;9.70;;;;;;;13.61;51.42;100599.59;1744184;82;21110;-72
2024/03/22 09:15:26;;;;;;;20.45;9.33;;;;;;;13.38;49.43;100595.56;1710540;84;21278;-70
2024/03/22 09:17:55;;;;;;;16.75;10.32;;;;;;;13.13;48.47;100596.16;1735575;82;21088;-71
2024/03/22 09:20:24;;;;;;;23.80;10.55;;;;;;;12.88;48.90;100593.11;1746136;82;21072;-71
2024/03/22 09:22:53;;;;;;;23.90;10.30;;;;;;;12.69;48.80;100584.28;1702227;82;21055;-72
2024/03/22 09:25:27;;;;;;;23.15;10.90;;;;;;;12.52;49.40;100589.83;1723642;82;21523;-71
2024/03/22 09:27:56;;;;;;;25.92;10.60;;;;;;;12.33;49.56;100586.77;1680457;85;21051;-70
2024/03/22 09:30:26;;;;;;;24.95;11.50;;;;;;;12.18;49.10;100581.95;1744177;82;21533;-71
2024/03/22 09:32:55;;;;;;;22.25;12.03;;;;;;;12.02;49.72;100586.41;1714351;84;21424;-72
2024/03/22 09:35:24;;;;;;;21.93;11.48;;;;;;;11.90;50.18;100583.38;1682114;85;21476;-72
2024/03/22 09:37:53;;;;;;;31.90;13.38;;;;;;;11.80;50.43;100577.92;1714269;84;21039;-70
2024/03/22 09:40:23;;;;;;;26.87;14.85;;;;;;;11.71;50.62;100572.56;1670775;85;21095;-69
2024/03/22 09:42:53;;;;;;;25.30;13.13;;;;;;;11.65;50.66;100573.33;1685069;83;21550;-69
2024/03/22 09:45:24;;;;;;;24.32;12.33;;;;;;;11.58;50.55;100569.69;1682263;83;21031;-69
2024/03/22 09:47:55;;;;;;;24.70;11.60;;;;;;;11.53;50.99;100576.30;1714587;84;21071;-70
2024/03/22 09:50:25;;;;;;;21.77;10.28;;;;;;;11.54;51.96;100578.00;1685468;84;21086;-69
2024/03/22 09:52:54;;;;;;;22.20;10.63;;;;;;;11.56;51.68;100577.28;1690536;84;21082;-70
2024/03/22 09:55:24;;;;;;;24.72;11.12;;;;;;;11.57;50.80;100574.86;1714031;84;21068;-71
2024/03/22 09:57:53;;;;;;;23.05;10.45;;;;;;;11.55;50.74;100561.86;1682223;85;21035;-69
2024/03/22 10:00:24;;;;;;;21.17;10.53;;;;;;;11.55;51.50;100558.27;1670637;85;21048;-69
2024/03/22 10:02:53;;;;;;;28.60;10.82;;;;;;;11.57;51.21;100550.16;1714174;84;21459;-69
2024/03/22 10:05:22;;;;;;;15.55;8.70;;;;;;;11.57;51.42;100547.41;1682176;85;21051;-68
2024/03/22 10:07:50;;;;;;;15.70;9.03;;;;;;;11.60;51.08;100544.27;1756665;82;21056;-68
2024/03/22 10:10:20;;;;;;;18.92;8.65;;;;;;;11.60;51.18;100551.12;1756921;82;21036;-69
2024/03/22 10:12:49;;;;;;;15.98;9.20;;;;;;;11.60;51.21;100548.39;1756721;82;21068;-68
2024/03/22 10:15:21;;;;;;;20.00;8.93;;;;;;;11.61;51.45;100539.63;1682240;85;21236;-69
2024/03/22 10:17:49;;;;;;;18.35;9.10;;;;;;;11.63;51.61;100526.55;1756702;82;21059;-69
2024/03/22 10:20:19;;;;;;;20.55;9.18;;;;;;;11.66;51.50;100531.11;1756444;80;22013;-68
2024/03/22 10:23:00;;;;;;;16.55;9.83;;;;;;;11.69;51.13;100529.34;1756365;82;21087;-69
2024/03/22 10:25:29;;;;;;;20.40;8.55;;;;;;;11.72;51.42;100534.45;1699470;82;21095;-69
2024/03/22 10:27:59;;;;;;;15.48;8.65;;;;;;;11.71;50.45;100527.80;1682121;85;21067;-69
2024/03/22 10:30:27;;;;;;;18.25;8.30;;;;;;;11.67;50.42;100531.44;1756964;82;21036;-69
2024/03/22 10:32:56;;;;;;;16.82;8.80;;;;;;;11.66;50.31;100528.37;1756575;82;21480;-68
2024/03/22 10:35:25;;;;;;;22.05;9.53;;;;;;;11.66;50.49;100535.23;1681808;84;21111;-69
2024/03/22 10:37:58;;;;;;;18.05;9.08;;;;;;;11.69;51.48;100531.23;1756498;82;21028;-69
2024/03/22 10:40:28;;;;;;;18.42;10.25;;;;;;;11.71;50.61;100527.27;1736062;82;21012;-69
2024/03/22 10:42:57;;;;;;;14.18;8.18;;;;;;;11.73;49.71;100522.42;1712121;82;21520;-70
2024/03/22 10:45:27;;;;;;;15.28;7.60;;;;;;;11.75;48.33;100520.33;1670189;85;21008;-68
2024/03/22 10:47:56;;;;;;;14.53;7.67;;;;;;;11.75;48.20;100514.83;1756922;82;21039;-69
2024/03/22 10:50:25;;;;;;;16.15;6.83;;;;;;;11.80;47.98;100507.92;1735466;82;21021;-69
2024/03/22 10:53:02;;;;;;;13.03;7.37;;;;;;;11.82;46.87;100503.92;1682224;85;21047;-68
2024/03/22 10:55:34;;;;;;;20.12;9.43;;;;;;;11.79;46.68;100507.59;1756801;82;21028;-70
2024/03/22 10:58:04;;;;;;;15.70;8.48;;;;;;;11.80;47.04;100509.30;1756536;81;21502;-71
2024/03/22 11:00:34;;;;;;;15.55;8.48;;;;;;;11.81;47.82;100511.83;1756779;82;21473;-71
2024/03/22 11:03:04;;;;;;;15.75;7.87;;;;;;;11.85;47.81;100512.28;1756874;82;21052;-69
2024/03/22 11:05:33;;;;;;;18.10;7.53;;;;;;;11.89;48.18;100495.72;1682062;85;21049;-70
2024/03/22 11:08:05;;;;;;;16.20;7.95;;;;;;;11.96;47.91;100506.20;1718607;83;21090;-69
2024/03/22 11:10:35;;;;;;;20.68;11.70;;;;;;;11.95;47.47;100500.39;1710532;84;21132;-70
2024/03/22 11:13:04;;;;;;;20.40;9.83;;;;;;;11.95;48.08;100496.27;1718626;83;21466;-70
2024/03/22 11:15:33;;;;;;;21.35;8.95;;;;;;;11.97;47.73;100498.29;1743616;82;21533;-70
2024/03/22 11:18:02;;;;;;;19.65;9.65;;;;;;;11.97;47.32;100496.92;1743737;82;21455;-69
2024/03/22 11:20:32;;;;;;;16.62;9.58;;;;;;;11.96;47.42;100502.94;1743758;82;21536;-69
2024/03/22 11:23:00;;;;;;;16.12;9.28;;;;;;;11.95;47.87;100497.65;1743627;82;21046;-69